createdAt,value
2018-09-05T00:00:55.960Z,86.89
2018-09-05T00:03:23.675Z,86.98
2018-09-05T00:05:51.483Z,86.80
2018-09-05T00:08:19.250Z,87.30
2018-09-05T00:10:47.024Z,86.72
2018-09-05T00:13:14.776Z,87.02
2018-09-05T00:15:42.487Z,86.38
2018-09-05T00:18:10.172Z,87.25
2018-09-05T00:20:37.868Z,86.62
2018-09-05T00:23:05.589Z,86.94
2018-09-05T00:25:33.429Z,86.43
2018-09-05T00:28:01.100Z,86.91
2018-09-05T00:30:28.800Z,86.45
2018-09-05T00:32:56.532Z,86.86
2018-09-05T00:35:24.257Z,86.58
2018-09-05T00:37:51.943Z,86.75
2018-09-05T00:40:19.872Z,86.25
2018-09-05T00:42:47.984Z,86.47
2018-09-05T00:45:15.701Z,86.50
2018-09-05T00:47:43.498Z,86.25
2018-09-05T00:50:11.188Z,86.82
2018-09-05T00:52:38.940Z,86.45
2018-09-05T00:55:06.677Z,85.17
2018-09-05T00:57:34.389Z,86.00
2018-09-05T01:00:02.198Z,85.13
2018-09-05T01:02:30.005Z,85.53
2018-09-05T01:04:57.744Z,85.36
2018-09-05T01:07:26.750Z,85.21
2018-09-05T01:09:54.486Z,85.00
2018-09-05T01:12:23.160Z,84.99
2018-09-05T01:14:52.429Z,84.73
2018-09-05T01:17:20.543Z,84.68
2018-09-05T01:19:48.242Z,84.21
2018-09-05T01:22:15.932Z,84.72
2018-09-05T01:24:43.657Z,85.23
2018-09-05T01:27:11.869Z,85.30
2018-09-05T01:29:40.296Z,85.08
2018-09-05T01:32:09.107Z,85.48
2018-09-05T01:34:37.280Z,84.99
2018-09-05T01:37:05.104Z,85.22
2018-09-05T01:39:32.796Z,84.96
2018-09-05T01:42:00.500Z,84.80
2018-09-05T01:44:28.180Z,85.67
2018-09-05T01:46:55.851Z,85.62
2018-09-05T01:49:23.644Z,85.91
2018-09-05T01:51:55.429Z,85.57
2018-09-05T01:54:23.169Z,85.67
2018-09-05T01:56:51.279Z,85.86
2018-09-05T01:59:18.969Z,85.95
2018-09-05T02:01:47.292Z,85.67
2018-09-05T02:04:15.008Z,86.27
2018-09-05T02:06:42.737Z,85.98
2018-09-05T02:09:12.088Z,86.72
2018-09-05T02:11:39.796Z,86.72
2018-09-05T02:14:07.483Z,86.13
2018-09-05T02:16:35.300Z,86.69
2018-09-05T02:19:09.612Z,86.70
2018-09-05T02:21:37.393Z,86.51
2018-09-05T02:24:05.261Z,86.35
2018-09-05T02:26:33.080Z,86.21
2018-09-05T02:29:00.848Z,87.10
2018-09-05T02:31:28.900Z,87.30
2018-09-05T02:33:56.615Z,87.25
2018-09-05T02:36:24.339Z,87.51
2018-09-05T02:38:52.071Z,87.42
2018-09-05T02:41:19.845Z,87.79
2018-09-05T02:43:53.008Z,87.24
2018-09-05T02:46:20.737Z,87.27
2018-09-05T02:48:48.423Z,87.57
2018-09-05T02:51:16.144Z,87.48
2018-09-05T02:53:43.828Z,87.30
2018-09-05T02:56:11.505Z,88.06
2018-09-05T02:58:39.195Z,87.60
2018-09-05T03:01:06.878Z,88.40
2018-09-05T03:03:34.548Z,88.10
2018-09-05T03:06:02.251Z,88.25
2018-09-05T03:08:29.941Z,88.57
2018-09-05T03:10:57.672Z,87.85
2018-09-05T03:13:25.371Z,88.39
2018-09-05T03:15:53.060Z,88.44
2018-09-05T03:18:20.778Z,88.51
2018-09-05T03:20:48.479Z,88.21
2018-09-05T03:23:16.194Z,88.42
2018-09-05T03:25:43.916Z,88.65
2018-09-05T03:28:11.620Z,88.46
2018-09-05T03:30:39.944Z,88.70
2018-09-05T03:33:07.925Z,88.44
2018-09-05T03:35:35.708Z,88.85
2018-09-05T03:38:03.624Z,88.50
2018-09-05T03:40:31.309Z,88.43
2018-09-05T03:42:59.074Z,88.46
2018-09-05T03:45:26.794Z,88.91
2018-09-05T03:47:54.477Z,89.08
2018-09-05T03:50:22.177Z,89.19
2018-09-05T03:52:49.859Z,88.96
2018-09-05T03:55:17.576Z,89.36
2018-09-05T03:57:45.248Z,89.68
2018-09-05T04:00:13.153Z,89.86
2018-09-05T04:02:40.842Z,89.71
2018-09-05T04:05:08.671Z,89.83
2018-09-05T04:07:36.379Z,89.30
2018-09-05T04:10:04.184Z,89.13
2018-09-05T04:12:36.376Z,89.98
2018-09-05T04:15:04.488Z,89.77
2018-09-05T04:17:32.173Z,90.03
2018-09-05T04:19:59.895Z,90.49
2018-09-05T04:22:27.620Z,90.30
2018-09-05T04:24:55.292Z,90.10
2018-09-05T04:27:23.041Z,89.98
2018-09-05T04:29:50.734Z,90.78
2018-09-05T04:32:18.436Z,90.44
2018-09-05T04:34:46.153Z,90.81
2018-09-05T04:37:13.842Z,90.91
2018-09-05T04:39:41.564Z,90.67
2018-09-05T04:42:09.272Z,90.59
2018-09-05T04:44:36.959Z,90.73
2018-09-05T04:47:04.664Z,90.16
2018-09-05T04:49:32.406Z,90.03
2018-09-05T04:52:00.118Z,89.82
2018-09-05T04:54:27.797Z,89.17
2018-09-05T04:56:55.482Z,88.75
2018-09-05T04:59:23.220Z,87.18
2018-09-05T05:01:50.909Z,86.39
2018-09-05T05:04:18.605Z,84.96
2018-09-05T05:06:46.350Z,84.60
2018-09-05T05:09:14.017Z,83.65
2018-09-05T05:11:41.716Z,82.90
2018-09-05T05:14:09.997Z,82.09
2018-09-05T05:16:37.682Z,81.41
2018-09-05T05:19:05.452Z,77.26
2018-09-05T05:21:33.224Z,78.87
2018-09-05T05:24:00.937Z,78.32
2018-09-05T05:26:28.948Z,76.03
2018-09-05T05:28:56.721Z,75.58
2018-09-05T05:31:24.489Z,75.63
2018-09-05T05:33:52.193Z,70.61
2018-09-05T05:36:19.942Z,72.53
2018-09-05T05:38:47.660Z,72.17
2018-09-05T05:41:15.624Z,71.29
2018-09-05T05:43:43.450Z,69.87
2018-09-05T05:46:11.167Z,68.76
2018-09-05T05:48:38.988Z,69.82
2018-09-05T05:51:06.923Z,65.89
2018-09-05T05:53:34.718Z,63.76
2018-09-05T05:56:02.531Z,68.35
2018-09-05T05:58:30.532Z,65.49
2018-09-05T06:00:58.309Z,64.17
2018-09-05T06:03:26.227Z,64.58
2018-09-05T06:05:54.098Z,61.13
2018-09-05T06:08:21.863Z,61.24
2018-09-05T06:10:49.569Z,61.20
2018-09-05T06:13:17.249Z,60.35
2018-09-05T06:15:44.960Z,59.50
2018-09-05T06:18:12.755Z,61.33
2018-09-05T06:20:40.436Z,60.96
2018-09-05T06:23:08.136Z,60.08
2018-09-05T06:25:35.903Z,60.85
2018-09-05T06:28:03.608Z,61.77
2018-09-05T06:30:31.700Z,60.48
2018-09-05T06:32:59.348Z,61.39
2018-09-05T06:35:27.117Z,61.34
2018-09-05T06:37:54.803Z,59.10
2018-09-05T06:40:22.644Z,56.83
2018-09-05T06:42:50.319Z,57.20
2018-09-05T06:45:18.017Z,58.00
2018-09-05T06:47:45.714Z,56.58
2018-09-05T06:50:13.426Z,57.06
2018-09-05T06:52:41.164Z,57.38
2018-09-05T06:55:08.908Z,57.29
2018-09-05T06:57:36.693Z,55.77
2018-09-05T07:00:54.620Z,55.54
2018-09-05T07:03:22.890Z,56.66
2018-09-05T07:05:50.666Z,54.80
2018-09-05T07:08:18.364Z,55.16
2018-09-05T07:10:46.159Z,53.54
2018-09-05T07:13:13.880Z,52.28
2018-09-05T07:15:41.581Z,54.01
2018-09-05T07:18:09.332Z,53.33
2018-09-05T07:20:37.084Z,51.33
2018-09-05T07:23:04.832Z,51.37
2018-09-05T07:25:32.532Z,51.44
2018-09-05T07:28:00.269Z,52.00
2018-09-05T07:30:28.083Z,51.71
2018-09-05T07:32:55.699Z,49.73
2018-09-05T07:35:23.397Z,52.22
2018-09-05T07:37:51.155Z,51.82
2018-09-05T07:40:18.987Z,50.16
2018-09-05T07:42:46.659Z,50.24
2018-09-05T07:45:14.459Z,49.85
2018-09-05T07:47:42.178Z,50.77
2018-09-05T07:50:09.903Z,51.34
2018-09-05T07:52:37.659Z,49.42
2018-09-05T07:55:05.548Z,49.38
2018-09-05T07:57:33.268Z,48.94
2018-09-05T08:00:01.002Z,49.42
2018-09-05T08:02:28.708Z,50.65
2018-09-05T08:04:56.440Z,48.92
2018-09-05T08:07:24.176Z,48.79
2018-09-05T08:09:51.851Z,49.23
2018-09-05T08:12:19.567Z,48.14
2018-09-05T08:14:47.308Z,49.64
2018-09-05T08:17:15.008Z,49.66
2018-09-05T08:19:42.720Z,48.68
2018-09-05T08:22:10.449Z,48.88
2018-09-05T08:24:38.386Z,47.20
2018-09-05T08:27:06.108Z,46.53
2018-09-05T08:29:33.800Z,45.32
2018-09-05T08:32:01.552Z,46.38
2018-09-05T08:34:29.308Z,47.90
2018-09-05T08:36:57.266Z,46.97
2018-09-05T08:39:24.784Z,46.29
2018-09-05T08:41:52.581Z,46.93
2018-09-05T08:44:20.481Z,46.75
2018-09-05T08:46:48.114Z,47.48
2018-09-05T08:49:15.833Z,45.50
2018-09-05T08:51:43.516Z,45.90
2018-09-05T08:54:11.236Z,46.23
2018-09-05T08:56:38.974Z,45.48
2018-09-05T08:59:06.749Z,46.29
2018-09-05T09:01:35.307Z,44.87
2018-09-05T09:04:03.025Z,45.96
2018-09-05T09:06:30.769Z,45.22
2018-09-05T09:08:58.456Z,45.45
2018-09-05T09:11:26.233Z,45.40
2018-09-05T09:13:53.943Z,45.56
2018-09-05T09:16:21.653Z,45.77
2018-09-05T09:18:49.471Z,44.04
2018-09-05T09:21:17.243Z,46.49
2018-09-05T09:23:44.982Z,45.68
2018-09-05T09:26:12.691Z,44.64
2018-09-05T09:28:40.446Z,44.75
2018-09-05T09:31:08.172Z,44.02
2018-09-05T09:33:35.895Z,45.10
2018-09-05T09:36:03.659Z,42.82
2018-09-05T09:38:31.386Z,43.95
2018-09-05T09:40:59.080Z,43.85
2018-09-05T09:43:26.829Z,43.75
2018-09-05T09:45:54.537Z,43.37
2018-09-05T09:48:22.239Z,43.45
2018-09-05T09:50:50.006Z,42.08
2018-09-05T09:53:17.699Z,43.73
2018-09-05T09:55:45.449Z,44.27
2018-09-05T09:58:13.208Z,44.43
2018-09-05T10:00:46.550Z,42.17
2018-09-05T10:03:19.883Z,42.80
2018-09-05T10:05:53.113Z,42.14
2018-09-05T10:08:26.465Z,42.92
2018-09-05T10:10:59.769Z,42.38
2018-09-05T10:13:33.064Z,41.91
2018-09-05T10:16:06.464Z,43.15
2018-09-05T10:18:37.195Z,44.17
2018-09-05T10:21:04.973Z,41.21
2018-09-05T10:23:32.735Z,43.33
2018-09-05T10:26:00.515Z,43.41
2018-09-05T10:28:28.218Z,42.04
2018-09-05T10:30:55.939Z,41.10
2018-09-05T10:33:23.652Z,41.23
2018-09-05T10:35:51.421Z,40.89
2018-09-05T10:38:19.176Z,44.07
2018-09-05T10:40:46.889Z,42.96
2018-09-05T10:43:14.603Z,44.21
2018-09-05T10:45:42.372Z,42.30
2018-09-05T10:48:10.527Z,43.50
2018-09-05T10:50:38.264Z,41.57
2018-09-05T10:53:06.432Z,41.15
2018-09-05T10:55:34.164Z,41.77
2018-09-05T10:58:01.889Z,42.75
2018-09-05T11:00:29.672Z,41.81
2018-09-05T11:02:57.372Z,41.12
2018-09-05T11:05:25.116Z,41.78
2018-09-05T11:07:52.850Z,41.66
2018-09-05T11:10:20.677Z,42.35
2018-09-05T11:12:48.392Z,41.84
2018-09-05T11:15:16.152Z,42.08
2018-09-05T11:17:43.889Z,41.75
2018-09-05T11:20:12.232Z,41.56
2018-09-05T11:22:40.340Z,42.58
2018-09-05T11:25:08.079Z,40.60
2018-09-05T11:27:35.923Z,41.59
2018-09-05T11:30:03.807Z,42.36
2018-09-05T11:32:31.525Z,41.14
2018-09-05T11:34:59.321Z,39.44
2018-09-05T11:37:27.239Z,39.55
2018-09-05T11:39:54.975Z,40.95
2018-09-05T11:42:22.688Z,40.71
2018-09-05T11:44:50.445Z,40.69
2018-09-05T11:47:18.174Z,40.06
2018-09-05T11:49:45.901Z,39.61
2018-09-05T11:52:13.667Z,40.21
2018-09-05T11:54:41.397Z,42.46
2018-09-05T11:57:09.165Z,41.15
2018-09-05T11:59:37.038Z,40.00
2018-09-05T12:02:04.975Z,40.06
2018-09-05T12:04:32.924Z,42.08
2018-09-05T12:07:00.756Z,38.83
2018-09-05T12:09:28.461Z,39.68
2018-09-05T12:11:56.234Z,39.04
2018-09-05T12:14:24.037Z,38.52
2018-09-05T12:16:51.847Z,39.01
2018-09-05T12:19:19.591Z,38.83
2018-09-05T12:21:47.292Z,40.62
2018-09-05T12:24:15.053Z,38.66
2018-09-05T12:26:42.769Z,39.14
2018-09-05T12:29:11.996Z,38.79
2018-09-05T12:31:40.218Z,38.29
2018-09-05T12:34:07.942Z,39.52
2018-09-05T12:36:35.803Z,39.69
2018-09-05T12:39:05.452Z,37.96
2018-09-05T12:41:33.148Z,38.10
2018-09-05T12:44:00.952Z,38.91
2018-09-05T12:46:28.668Z,38.36
2018-09-05T12:48:56.384Z,38.74
2018-09-05T12:51:24.245Z,38.91
2018-09-05T12:53:51.988Z,39.18
2018-09-05T12:56:19.700Z,39.15
2018-09-05T12:58:47.464Z,38.95
2018-09-05T13:01:15.297Z,39.71
2018-09-05T13:03:43.131Z,40.78
2018-09-05T13:06:10.849Z,41.10
2018-09-05T13:08:38.571Z,40.88
2018-09-05T13:11:06.304Z,41.94
2018-09-05T13:13:40.868Z,42.73
2018-09-05T13:16:08.572Z,43.95
2018-09-05T13:18:36.267Z,43.15
2018-09-05T13:21:04.126Z,44.34
2018-09-05T13:23:31.883Z,50.46
2018-09-05T13:25:59.627Z,52.22
2018-09-05T13:28:27.329Z,51.79
2018-09-05T13:30:55.034Z,51.92
2018-09-05T13:33:22.770Z,53.32
2018-09-05T13:35:50.767Z,54.67
2018-09-05T13:38:18.471Z,55.64
2018-09-05T13:40:46.277Z,56.30
2018-09-05T13:43:14.017Z,55.44
2018-09-05T13:45:41.952Z,55.83
2018-09-05T13:48:09.732Z,56.53
2018-09-05T13:50:37.517Z,55.36
2018-09-05T13:53:05.649Z,55.36
2018-09-05T13:55:33.389Z,54.91
2018-09-05T13:58:01.111Z,56.64
2018-09-05T14:00:28.994Z,56.56
2018-09-05T14:02:56.715Z,54.69
2018-09-05T14:05:24.480Z,54.53
2018-09-05T14:07:52.252Z,55.20
2018-09-05T14:10:19.972Z,55.61
2018-09-05T14:12:47.755Z,55.77
2018-09-05T14:15:15.465Z,55.97
2018-09-05T14:17:43.293Z,55.15
2018-09-05T14:20:11.120Z,55.64
2018-09-05T14:22:38.873Z,56.09
2018-09-05T14:25:06.740Z,55.38
2018-09-05T14:27:34.546Z,55.42
2018-09-05T14:30:02.352Z,55.74
2018-09-05T14:32:30.091Z,57.08
2018-09-05T14:34:57.816Z,56.59
2018-09-05T14:37:25.588Z,56.87
2018-09-05T14:39:53.355Z,57.26
2018-09-05T14:42:21.108Z,57.54
2018-09-05T14:44:48.816Z,57.88
2018-09-05T14:47:16.535Z,58.49
2018-09-05T14:49:44.276Z,58.85
2018-09-05T14:52:12.030Z,58.46
2018-09-05T14:54:39.769Z,59.56
2018-09-05T14:57:07.585Z,59.24
2018-09-05T14:59:35.310Z,59.93
2018-09-05T15:02:03.181Z,59.67
2018-09-05T15:04:30.886Z,61.45
2018-09-05T15:06:58.637Z,61.12
2018-09-05T15:09:26.392Z,60.97
2018-09-05T15:11:54.194Z,60.52
2018-09-05T15:14:21.869Z,61.04
2018-09-05T15:16:49.578Z,62.24
2018-09-05T15:19:17.293Z,62.69
2018-09-05T15:21:45.133Z,62.76
2018-09-05T15:24:12.892Z,62.55
2018-09-05T15:26:40.629Z,63.33
2018-09-05T15:29:08.378Z,62.86
2018-09-05T15:31:36.080Z,63.61
2018-09-05T15:34:03.797Z,63.64
2018-09-05T15:36:31.524Z,64.38
2018-09-05T15:38:59.255Z,64.11
2018-09-05T15:41:26.984Z,64.03
2018-09-05T15:43:54.740Z,64.95
2018-09-05T15:46:22.465Z,64.89
2018-09-05T15:48:50.162Z,64.70
2018-09-05T15:51:17.861Z,65.10
2018-09-05T15:53:45.547Z,65.57
2018-09-05T15:56:13.276Z,64.72
2018-09-05T15:58:41.017Z,64.91
2018-09-05T16:01:08.696Z,65.12
2018-09-05T16:03:36.428Z,66.33
2018-09-05T16:06:04.270Z,65.74
2018-09-05T16:08:32.087Z,66.07
2018-09-05T16:10:59.804Z,66.03
2018-09-05T16:13:27.474Z,65.89
2018-09-05T16:15:55.171Z,65.62
2018-09-05T16:18:23.055Z,67.04
2018-09-05T16:20:50.779Z,66.19
2018-09-05T16:23:18.466Z,67.21
2018-09-05T16:25:46.219Z,66.71
2018-09-05T16:28:13.923Z,66.30
2018-09-05T16:30:41.767Z,66.69
2018-09-05T16:33:09.481Z,68.39
2018-09-05T16:35:37.195Z,67.67
2018-09-05T16:38:05.024Z,67.75
2018-09-05T16:40:32.721Z,67.40
2018-09-05T16:43:00.412Z,67.82
2018-09-05T16:45:28.173Z,68.62
2018-09-05T16:47:55.864Z,68.51
2018-09-05T16:50:24.069Z,68.92
2018-09-05T16:52:51.756Z,69.08
2018-09-05T16:55:19.470Z,68.38
2018-09-05T16:57:47.167Z,68.63
2018-09-05T17:00:14.837Z,69.94
2018-09-05T17:02:42.591Z,69.71
2018-09-05T17:05:10.293Z,69.25
2018-09-05T17:07:38.004Z,69.32
2018-09-05T17:10:05.895Z,69.21
2018-09-05T17:12:33.576Z,69.49
2018-09-05T17:15:01.248Z,69.87
2018-09-05T17:17:28.969Z,70.34
2018-09-05T17:19:56.746Z,70.47
2018-09-05T17:22:24.484Z,70.81
2018-09-05T17:24:52.301Z,71.49
2018-09-05T17:27:20.135Z,71.43
2018-09-05T17:29:47.880Z,71.85
2018-09-05T17:32:15.553Z,73.55
2018-09-05T17:34:43.346Z,72.99
2018-09-05T17:37:11.195Z,73.38
2018-09-05T17:39:38.878Z,74.28
2018-09-05T17:42:06.580Z,73.48
2018-09-05T17:44:34.314Z,73.47
2018-09-05T17:47:02.006Z,72.90
2018-09-05T17:49:29.725Z,73.37
2018-09-05T17:51:57.465Z,74.04
2018-09-05T17:54:25.252Z,74.14
2018-09-05T17:56:52.961Z,74.63
2018-09-05T17:59:20.708Z,75.08
2018-09-05T18:01:48.508Z,74.66
2018-09-05T18:04:16.189Z,75.09
2018-09-05T18:06:43.888Z,75.41
2018-09-05T18:09:11.906Z,75.41
2018-09-05T18:11:39.611Z,76.47
2018-09-05T18:14:07.352Z,76.28
2018-09-05T18:16:35.057Z,76.41
2018-09-05T18:19:02.911Z,76.42
2018-09-05T18:21:30.690Z,77.25
2018-09-05T18:23:58.467Z,78.14
2018-09-05T18:26:26.211Z,79.68
2018-09-05T18:28:53.904Z,79.36
2018-09-05T18:31:21.635Z,78.19
2018-09-05T18:33:49.443Z,77.46
2018-09-05T18:36:17.117Z,77.85
2018-09-05T18:38:44.848Z,78.05
2018-09-05T18:41:12.640Z,77.71
2018-09-05T18:43:40.401Z,78.25
2018-09-05T18:46:08.192Z,78.57
2018-09-05T18:48:35.896Z,79.02
2018-09-05T18:51:03.723Z,78.27
2018-09-05T18:53:31.479Z,79.68
2018-09-05T18:55:59.267Z,78.94
2018-09-05T18:58:26.972Z,79.86
2018-09-05T19:00:54.882Z,79.38
2018-09-05T19:03:22.649Z,79.90
2018-09-05T19:05:50.444Z,80.42
2018-09-05T19:08:18.301Z,79.88
2018-09-05T19:10:46.017Z,80.52
2018-09-05T19:13:13.716Z,79.97
2018-09-05T19:15:41.451Z,79.70
2018-09-05T19:18:09.151Z,80.82
2018-09-05T19:20:36.931Z,81.55
2018-09-05T19:23:04.688Z,82.34
2018-09-05T19:25:32.379Z,82.76
2018-09-05T19:28:00.068Z,81.70
2018-09-05T19:30:27.798Z,81.43
2018-09-05T19:32:55.473Z,81.33
2018-09-05T19:35:23.185Z,81.78
2018-09-05T19:37:50.991Z,80.79
2018-09-05T19:40:18.663Z,82.06
2018-09-05T19:42:46.375Z,82.08
2018-09-05T19:45:14.076Z,81.58
2018-09-05T19:47:42.684Z,82.24
2018-09-05T19:50:10.415Z,82.08
2018-09-05T19:52:38.142Z,83.04
2018-09-05T19:55:05.845Z,83.35
2018-09-05T19:57:33.530Z,83.33
2018-09-05T20:00:01.256Z,82.71
2018-09-05T20:02:29.015Z,82.91
2018-09-05T20:04:56.759Z,82.42
2018-09-05T20:07:24.535Z,82.16
2018-09-05T20:09:52.256Z,82.15
2018-09-05T20:12:19.996Z,83.16
2018-09-05T20:14:47.680Z,83.94
2018-09-05T20:17:15.391Z,84.57
2018-09-05T20:19:43.138Z,84.70
2018-09-05T20:22:11.407Z,84.50
2018-09-05T20:24:39.223Z,83.77
2018-09-05T20:27:07.349Z,83.99
2018-09-05T20:29:35.168Z,83.44
2018-09-05T20:32:02.913Z,85.18
2018-09-05T20:34:30.612Z,84.54
2018-09-05T20:36:58.392Z,84.87
2018-09-05T20:39:26.097Z,85.92
2018-09-05T20:41:54.014Z,85.31
2018-09-05T20:44:21.698Z,85.04
2018-09-05T20:46:49.404Z,85.78
2018-09-05T20:49:17.153Z,86.20
2018-09-05T20:51:44.868Z,86.13
2018-09-05T20:54:12.600Z,86.48
2018-09-05T20:56:40.288Z,86.87
2018-09-05T20:59:08.039Z,86.95
2018-09-05T21:01:35.717Z,88.52
2018-09-05T21:04:03.427Z,89.22
2018-09-05T21:06:31.153Z,88.58
2018-09-05T21:08:58.871Z,87.17
2018-09-05T21:11:26.573Z,85.40
2018-09-05T21:13:54.285Z,86.17
2018-09-05T21:16:22.119Z,85.83
2018-09-05T21:18:49.825Z,85.02
2018-09-05T21:21:17.524Z,85.17
2018-09-05T21:23:45.263Z,85.44
2018-09-05T21:26:12.939Z,85.10
2018-09-05T21:28:40.639Z,85.52
2018-09-05T21:31:08.360Z,86.81
2018-09-05T21:33:36.029Z,86.72
2018-09-05T21:36:03.919Z,86.82
2018-09-05T21:38:31.594Z,86.68
2018-09-05T21:40:59.284Z,86.89
2018-09-05T21:43:27.056Z,87.60
2018-09-05T21:45:54.785Z,87.64
2018-09-05T21:48:22.551Z,87.45
2018-09-05T21:50:50.308Z,87.33
2018-09-05T21:53:18.020Z,87.41
2018-09-05T21:55:45.692Z,87.08
2018-09-05T21:58:13.395Z,87.16
2018-09-05T22:00:41.190Z,87.63
2018-09-05T22:03:08.860Z,87.70
2018-09-05T22:05:36.530Z,88.00
2018-09-05T22:08:04.251Z,87.67
2018-09-05T22:10:31.939Z,88.02
2018-09-05T22:12:59.620Z,87.75
2018-09-05T22:15:32.149Z,87.98
2018-09-05T22:17:59.812Z,87.90
2018-09-05T22:20:27.495Z,88.22
2018-09-05T22:22:55.184Z,87.67
2018-09-05T22:25:22.856Z,88.22
2018-09-05T22:27:50.536Z,87.92
2018-09-05T22:30:18.257Z,88.19
2018-09-05T22:32:45.948Z,88.09
2018-09-05T22:35:13.669Z,88.26
2018-09-05T22:37:41.424Z,88.16
2018-09-05T22:40:09.096Z,88.71
2018-09-05T22:42:42.053Z,88.42
2018-09-05T22:45:21.112Z,88.46
2018-09-05T22:48:09.420Z,88.73
2018-09-05T22:52:05.416Z,88.76
2018-09-05T22:55:52.804Z,89.21
2018-09-05T22:58:36.627Z,90.02
2018-09-05T23:01:25.173Z,90.07
2018-09-05T23:05:05.003Z,88.48
2018-09-05T23:07:45.353Z,88.37
2018-09-05T23:10:24.403Z,88.21
2018-09-05T23:13:03.360Z,88.38
2018-09-05T23:15:42.329Z,88.09
2018-09-05T23:18:21.317Z,87.92
2018-09-05T23:21:01.337Z,88.00
2018-09-05T23:23:40.447Z,87.84
2018-09-05T23:26:08.591Z,88.08
2018-09-05T23:28:36.888Z,88.07
2018-09-05T23:31:04.668Z,88.12
2018-09-05T23:33:32.462Z,88.67
2018-09-05T23:36:00.140Z,89.05
2018-09-05T23:38:27.897Z,89.48
2018-09-05T23:40:55.581Z,89.11
2018-09-05T23:43:23.244Z,89.14
2018-09-05T23:45:51.030Z,89.39
2018-09-05T23:48:18.713Z,89.42
2018-09-05T23:50:46.396Z,89.14
2018-09-05T23:53:14.094Z,89.11
2018-09-05T23:55:41.776Z,89.20
2018-09-05T23:58:09.491Z,89.46
